sensor_id;sensor_type;location;lat;lon;timestamp;P1;durP1;ratioP1;P2;durP2;ratioP2
55300;SDS011;58302;51.446;-2.000;2022-10-15T00:01:10;21.27;;;11.20;;
55300;SDS011;58302;51.446;-2.000;2022-10-15T00:03:38;25.77;;;12.82;;
55300;SDS011;58302;51.446;-2.000;2022-10-15T00:06:07;29.58;;;12.95;;
55300;SDS011;58302;51.446;-2.000;2022-10-15T00:08:34;17.52;;;10.43;;
55300;SDS011;58302;51.446;-2.000;2022-10-15T00:11:34;20.20;;;11.32;;
55300;SDS011;58302;51.446;-2.000;2022-10-15T00:13:54;18.25;;;10.63;;
55300;SDS011;58302;51.446;-2.000;2022-10-15T00:16:22;17.80;;;9.35;;
55300;SDS011;58302;51.446;-2.000;2022-10-15T00:18:50;19.30;;;10.13;;
55300;SDS011;58302;51.446;-2.000;2022-10-15T00:21:17;17.85;;;11.10;;
55300;SDS011;58302;51.446;-2.000;2022-10-15T00:23:45;15.73;;;10.38;;
55300;SDS011;58302;51.446;-2.000;2022-10-15T00:26:13;19.58;;;12.05;;
55300;SDS011;58302;51.446;-2.000;2022-10-15T00:28:41;18.63;;;11.07;;
55300;SDS011;58302;51.446;-2.000;2022-10-15T00:31:08;18.58;;;10.65;;
55300;SDS011;58302;51.446;-2.000;2022-10-15T00:33:36;20.42;;;12.02;;
55300;SDS011;58302;51.446;-2.000;2022-10-15T00:36:04;20.30;;;10.90;;
55300;SDS011;58302;51.446;-2.000;2022-10-15T00:38:32;20.42;;;11.60;;
55300;SDS011;58302;51.446;-2.000;2022-10-15T00:40:59;21.08;;;11.07;;
55300;SDS011;58302;51.446;-2.000;2022-10-15T00:46:41;17.75;;;11.07;;
55300;SDS011;58302;51.446;-2.000;2022-10-15T00:52:14;20.73;;;10.88;;
55300;SDS011;58302;51.446;-2.000;2022-10-15T00:54:46;24.88;;;12.27;;
55300;SDS011;58302;51.446;-2.000;2022-10-15T00:57:16;24.83;;;11.85;;
55300;SDS011;58302;51.446;-2.000;2022-10-15T00:59:45;22.38;;;12.48;;
55300;SDS011;58302;51.446;-2.000;2022-10-15T01:02:16;20.90;;;10.30;;
55300;SDS011;58302;51.446;-2.000;2022-10-15T01:04:43;16.17;;;9.82;;
55300;SDS011;58302;51.446;-2.000;2022-10-15T01:07:10;17.83;;;10.50;;
55300;SDS011;58302;51.446;-2.000;2022-10-15T01:09:36;23.10;;;11.77;;
55300;SDS011;58302;51.446;-2.000;2022-10-15T01:12:02;18.50;;;10.05;;
55300;SDS011;58302;51.446;-2.000;2022-10-15T01:14:50;14.75;;;9.07;;
55300;SDS011;58302;51.446;-2.000;2022-10-15T01:20:15;19.50;;;9.50;;
55300;SDS011;58302;51.446;-2.000;2022-10-15T01:29:13;16.95;;;7.75;;
55300;SDS011;58302;51.446;-2.000;2022-10-15T01:32:13;14.25;;;9.38;;
55300;SDS011;58302;51.446;-2.000;2022-10-15T01:37:23;17.70;;;8.18;;
55300;SDS011;58302;51.446;-2.000;2022-10-15T01:40:06;15.98;;;7.95;;
55300;SDS011;58302;51.446;-2.000;2022-10-15T01:42:38;17.08;;;8.40;;
55300;SDS011;58302;51.446;-2.000;2022-10-15T01:45:09;16.00;;;8.88;;
55300;SDS011;58302;51.446;-2.000;2022-10-15T01:50:14;14.18;;;8.05;;
55300;SDS011;58302;51.446;-2.000;2022-10-15T01:52:43;13.38;;;7.88;;
55300;SDS011;58302;51.446;-2.000;2022-10-15T01:55:10;13.23;;;8.48;;
55300;SDS011;58302;51.446;-2.000;2022-10-15T01:57:39;12.68;;;7.55;;
55300;SDS011;58302;51.446;-2.000;2022-10-15T02:00:08;12.90;;;7.75;;
55300;SDS011;58302;51.446;-2.000;2022-10-15T02:02:35;14.48;;;8.15;;
55300;SDS011;58302;51.446;-2.000;2022-10-15T02:05:01;16.55;;;7.22;;
55300;SDS011;58302;51.446;-2.000;2022-10-15T02:15:39;9.02;;;5.20;;
55300;SDS011;58302;51.446;-2.000;2022-10-15T02:18:20;11.55;;;6.32;;
55300;SDS011;58302;51.446;-2.000;2022-10-15T02:20:54;13.02;;;5.85;;
55300;SDS011;58302;51.446;-2.000;2022-10-15T02:23:26;9.20;;;5.18;;
55300;SDS011;58302;51.446;-2.000;2022-10-15T02:26:07;7.28;;;4.60;;
55300;SDS011;58302;51.446;-2.000;2022-10-15T02:28:35;9.80;;;5.25;;
55300;SDS011;58302;51.446;-2.000;2022-10-15T02:31:05;10.20;;;5.15;;
55300;SDS011;58302;51.446;-2.000;2022-10-15T02:33:34;8.45;;;4.57;;
55300;SDS011;58302;51.446;-2.000;2022-10-15T02:36:03;10.90;;;4.82;;
55300;SDS011;58302;51.446;-2.000;2022-10-15T02:38:29;9.32;;;4.85;;
55300;SDS011;58302;51.446;-2.000;2022-10-15T02:40:57;6.03;;;3.95;;
55300;SDS011;58302;51.446;-2.000;2022-10-15T02:43:24;6.55;;;4.65;;
55300;SDS011;58302;51.446;-2.000;2022-10-15T02:45:50;7.75;;;4.15;;
55300;SDS011;58302;51.446;-2.000;2022-10-15T02:48:16;8.95;;;4.45;;
55300;SDS011;58302;51.446;-2.000;2022-10-15T02:50:42;8.18;;;4.13;;
55300;SDS011;58302;51.446;-2.000;2022-10-15T02:53:08;10.13;;;5.05;;
55300;SDS011;58302;51.446;-2.000;2022-10-15T02:55:34;10.25;;;4.22;;
55300;SDS011;58302;51.446;-2.000;2022-10-15T02:58:00;10.40;;;4.57;;
55300;SDS011;58302;51.446;-2.000;2022-10-15T03:00:26;9.43;;;4.78;;
55300;SDS011;58302;51.446;-2.000;2022-10-15T03:02:52;9.20;;;5.10;;
55300;SDS011;58302;51.446;-2.000;2022-10-15T03:05:18;8.75;;;4.32;;
55300;SDS011;58302;51.446;-2.000;2022-10-15T03:07:44;11.70;;;4.97;;
55300;SDS011;58302;51.446;-2.000;2022-10-15T03:10:10;8.02;;;4.47;;
55300;SDS011;58302;51.446;-2.000;2022-10-15T03:12:36;12.77;;;5.95;;
55300;SDS011;58302;51.446;-2.000;2022-10-15T03:15:02;9.55;;;4.40;;
55300;SDS011;58302;51.446;-2.000;2022-10-15T03:17:28;12.15;;;5.32;;
55300;SDS011;58302;51.446;-2.000;2022-10-15T03:19:54;5.25;;;3.90;;
55300;SDS011;58302;51.446;-2.000;2022-10-15T03:22:20;8.80;;;3.95;;
55300;SDS011;58302;51.446;-2.000;2022-10-15T03:24:46;9.20;;;4.75;;
55300;SDS011;58302;51.446;-2.000;2022-10-15T03:27:11;10.13;;;4.88;;
55300;SDS011;58302;51.446;-2.000;2022-10-15T03:29:37;8.57;;;4.20;;
55300;SDS011;58302;51.446;-2.000;2022-10-15T03:32:04;13.00;;;4.45;;
55300;SDS011;58302;51.446;-2.000;2022-10-15T03:34:30;10.60;;;5.13;;
55300;SDS011;58302;51.446;-2.000;2022-10-15T03:36:56;7.65;;;4.60;;
55300;SDS011;58302;51.446;-2.000;2022-10-15T03:39:22;9.75;;;5.20;;
55300;SDS011;58302;51.446;-2.000;2022-10-15T03:41:47;13.35;;;5.80;;
55300;SDS011;58302;51.446;-2.000;2022-10-15T03:44:16;5.45;;;4.68;;
55300;SDS011;58302;51.446;-2.000;2022-10-15T03:46:42;9.45;;;4.60;;
55300;SDS011;58302;51.446;-2.000;2022-10-15T03:49:08;10.05;;;4.75;;
55300;SDS011;58302;51.446;-2.000;2022-10-15T03:51:34;8.23;;;5.10;;
55300;SDS011;58302;51.446;-2.000;2022-10-15T03:54:00;7.30;;;3.88;;
55300;SDS011;58302;51.446;-2.000;2022-10-15T03:56:26;9.65;;;4.53;;
55300;SDS011;58302;51.446;-2.000;2022-10-15T03:58:52;14.65;;;6.90;;
55300;SDS011;58302;51.446;-2.000;2022-10-15T04:01:18;7.85;;;5.03;;
55300;SDS011;58302;51.446;-2.000;2022-10-15T04:03:44;6.88;;;3.78;;
55300;SDS011;58302;51.446;-2.000;2022-10-15T04:06:11;13.70;;;5.75;;
55300;SDS011;58302;51.446;-2.000;2022-10-15T04:08:37;14.00;;;5.95;;
55300;SDS011;58302;51.446;-2.000;2022-10-15T04:11:03;10.60;;;4.68;;
55300;SDS011;58302;51.446;-2.000;2022-10-15T04:13:28;5.68;;;3.42;;
55300;SDS011;58302;51.446;-2.000;2022-10-15T04:15:54;9.98;;;6.38;;
55300;SDS011;58302;51.446;-2.000;2022-10-15T04:18:21;9.45;;;4.38;;
55300;SDS011;58302;51.446;-2.000;2022-10-15T04:20:47;6.72;;;4.10;;
55300;SDS011;58302;51.446;-2.000;2022-10-15T04:23:14;9.52;;;4.40;;
55300;SDS011;58302;51.446;-2.000;2022-10-15T04:25:40;6.20;;;4.20;;
55300;SDS011;58302;51.446;-2.000;2022-10-15T04:28:07;9.15;;;4.47;;
55300;SDS011;58302;51.446;-2.000;2022-10-15T04:30:33;8.30;;;5.20;;
55300;SDS011;58302;51.446;-2.000;2022-10-15T04:33:00;8.38;;;5.22;;
55300;SDS011;58302;51.446;-2.000;2022-10-15T04:35:26;10.77;;;4.95;;
55300;SDS011;58302;51.446;-2.000;2022-10-15T04:37:52;18.55;;;6.13;;
55300;SDS011;58302;51.446;-2.000;2022-10-15T04:40:18;9.98;;;5.40;;
55300;SDS011;58302;51.446;-2.000;2022-10-15T04:42:44;11.48;;;5.70;;
55300;SDS011;58302;51.446;-2.000;2022-10-15T04:45:10;9.27;;;5.57;;
55300;SDS011;58302;51.446;-2.000;2022-10-15T04:47:36;11.50;;;6.20;;
55300;SDS011;58302;51.446;-2.000;2022-10-15T04:50:03;11.80;;;5.70;;
55300;SDS011;58302;51.446;-2.000;2022-10-15T04:52:30;12.90;;;7.85;;
55300;SDS011;58302;51.446;-2.000;2022-10-15T04:54:56;10.85;;;6.20;;
55300;SDS011;58302;51.446;-2.000;2022-10-15T04:57:23;9.40;;;6.43;;
55300;SDS011;58302;51.446;-2.000;2022-10-15T04:59:49;13.38;;;6.75;;
55300;SDS011;58302;51.446;-2.000;2022-10-15T05:02:17;12.90;;;7.28;;
55300;SDS011;58302;51.446;-2.000;2022-10-15T05:04:43;12.07;;;5.75;;
55300;SDS011;58302;51.446;-2.000;2022-10-15T05:07:09;13.82;;;6.75;;
55300;SDS011;58302;51.446;-2.000;2022-10-15T05:09:35;16.70;;;7.53;;
55300;SDS011;58302;51.446;-2.000;2022-10-15T05:12:02;12.70;;;7.13;;
55300;SDS011;58302;51.446;-2.000;2022-10-15T05:14:28;13.77;;;6.80;;
55300;SDS011;58302;51.446;-2.000;2022-10-15T05:16:54;12.80;;;7.68;;
55300;SDS011;58302;51.446;-2.000;2022-10-15T05:19:20;17.48;;;8.35;;
55300;SDS011;58302;51.446;-2.000;2022-10-15T05:21:46;17.15;;;8.88;;
55300;SDS011;58302;51.446;-2.000;2022-10-15T05:24:12;14.70;;;7.18;;
55300;SDS011;58302;51.446;-2.000;2022-10-15T05:26:38;16.75;;;8.23;;
55300;SDS011;58302;51.446;-2.000;2022-10-15T05:29:04;14.85;;;8.85;;
55300;SDS011;58302;51.446;-2.000;2022-10-15T05:31:30;15.63;;;7.78;;
55300;SDS011;58302;51.446;-2.000;2022-10-15T05:33:57;23.48;;;10.10;;
55300;SDS011;58302;51.446;-2.000;2022-10-15T05:36:24;20.05;;;8.35;;
55300;SDS011;58302;51.446;-2.000;2022-10-15T05:38:53;17.98;;;7.90;;
55300;SDS011;58302;51.446;-2.000;2022-10-15T05:41:21;23.30;;;8.85;;
55300;SDS011;58302;51.446;-2.000;2022-10-15T05:43:48;20.80;;;8.30;;
55300;SDS011;58302;51.446;-2.000;2022-10-15T05:46:15;23.40;;;8.65;;
55300;SDS011;58302;51.446;-2.000;2022-10-15T05:48:43;15.57;;;8.75;;
55300;SDS011;58302;51.446;-2.000;2022-10-15T05:51:16;15.93;;;7.65;;
55300;SDS011;58302;51.446;-2.000;2022-10-15T05:53:42;19.38;;;8.57;;
55300;SDS011;58302;51.446;-2.000;2022-10-15T05:56:11;19.17;;;8.50;;
55300;SDS011;58302;51.446;-2.000;2022-10-15T05:58:37;18.05;;;8.95;;
55300;SDS011;58302;51.446;-2.000;2022-10-15T06:01:05;18.50;;;9.43;;
55300;SDS011;58302;51.446;-2.000;2022-10-15T06:03:33;19.75;;;8.52;;
55300;SDS011;58302;51.446;-2.000;2022-10-15T06:06:00;24.50;;;9.48;;
55300;SDS011;58302;51.446;-2.000;2022-10-15T06:08:27;16.63;;;7.63;;
55300;SDS011;58302;51.446;-2.000;2022-10-15T06:10:54;17.55;;;9.15;;
55300;SDS011;58302;51.446;-2.000;2022-10-15T06:13:21;20.98;;;9.75;;
55300;SDS011;58302;51.446;-2.000;2022-10-15T06:15:48;18.45;;;9.02;;
55300;SDS011;58302;51.446;-2.000;2022-10-15T06:18:14;16.17;;;7.70;;
55300;SDS011;58302;51.446;-2.000;2022-10-15T06:20:41;16.55;;;8.60;;
55300;SDS011;58302;51.446;-2.000;2022-10-15T06:23:08;15.35;;;10.23;;
55300;SDS011;58302;51.446;-2.000;2022-10-15T06:25:36;23.52;;;11.02;;
55300;SDS011;58302;51.446;-2.000;2022-10-15T06:28:03;17.80;;;10.82;;
55300;SDS011;58302;51.446;-2.000;2022-10-15T06:30:31;15.25;;;8.98;;
55300;SDS011;58302;51.446;-2.000;2022-10-15T06:32:57;17.08;;;8.45;;
55300;SDS011;58302;51.446;-2.000;2022-10-15T06:35:23;16.42;;;8.43;;
55300;SDS011;58302;51.446;-2.000;2022-10-15T06:37:51;17.65;;;7.32;;
55300;SDS011;58302;51.446;-2.000;2022-10-15T06:40:18;17.75;;;7.95;;
55300;SDS011;58302;51.446;-2.000;2022-10-15T06:42:44;14.82;;;7.85;;
55300;SDS011;58302;51.446;-2.000;2022-10-15T06:45:09;11.82;;;6.95;;
55300;SDS011;58302;51.446;-2.000;2022-10-15T06:47:36;13.05;;;6.40;;
55300;SDS011;58302;51.446;-2.000;2022-10-15T06:50:04;12.57;;;5.65;;
55300;SDS011;58302;51.446;-2.000;2022-10-15T06:52:31;13.52;;;5.60;;
55300;SDS011;58302;51.446;-2.000;2022-10-15T06:54:57;9.88;;;6.32;;
55300;SDS011;58302;51.446;-2.000;2022-10-15T06:57:23;11.32;;;5.80;;
55300;SDS011;58302;51.446;-2.000;2022-10-15T06:59:50;12.60;;;6.63;;
55300;SDS011;58302;51.446;-2.000;2022-10-15T07:02:17;10.18;;;5.32;;
55300;SDS011;58302;51.446;-2.000;2022-10-15T07:04:44;9.05;;;5.75;;
55300;SDS011;58302;51.446;-2.000;2022-10-15T07:07:10;6.28;;;4.28;;
55300;SDS011;58302;51.446;-2.000;2022-10-15T07:09:36;11.10;;;4.72;;
55300;SDS011;58302;51.446;-2.000;2022-10-15T07:12:02;4.28;;;3.47;;
55300;SDS011;58302;51.446;-2.000;2022-10-15T07:14:29;8.88;;;3.80;;
55300;SDS011;58302;51.446;-2.000;2022-10-15T07:16:56;5.30;;;3.08;;
55300;SDS011;58302;51.446;-2.000;2022-10-15T07:19:22;4.47;;;2.30;;
55300;SDS011;58302;51.446;-2.000;2022-10-15T07:21:48;4.68;;;3.03;;
55300;SDS011;58302;51.446;-2.000;2022-10-15T07:24:14;3.72;;;3.00;;
55300;SDS011;58302;51.446;-2.000;2022-10-15T07:26:40;3.03;;;1.95;;
55300;SDS011;58302;51.446;-2.000;2022-10-15T07:29:06;4.60;;;1.90;;
55300;SDS011;58302;51.446;-2.000;2022-10-15T07:31:33;2.63;;;1.77;;
55300;SDS011;58302;51.446;-2.000;2022-10-15T07:34:00;2.10;;;1.60;;
55300;SDS011;58302;51.446;-2.000;2022-10-15T07:36:26;2.70;;;1.65;;
55300;SDS011;58302;51.446;-2.000;2022-10-15T07:38:52;3.83;;;1.40;;
55300;SDS011;58302;51.446;-2.000;2022-10-15T07:41:18;2.67;;;0.93;;
55300;SDS011;58302;51.446;-2.000;2022-10-15T07:43:44;1.73;;;1.02;;
55300;SDS011;58302;51.446;-2.000;2022-10-15T07:46:10;2.28;;;0.70;;
55300;SDS011;58302;51.446;-2.000;2022-10-15T07:48:36;2.45;;;1.08;;
55300;SDS011;58302;51.446;-2.000;2022-10-15T07:51:03;1.67;;;0.82;;
55300;SDS011;58302;51.446;-2.000;2022-10-15T07:53:31;4.47;;;1.75;;
55300;SDS011;58302;51.446;-2.000;2022-10-15T07:55:58;1.85;;;1.23;;
55300;SDS011;58302;51.446;-2.000;2022-10-15T07:58:26;2.15;;;0.75;;
55300;SDS011;58302;51.446;-2.000;2022-10-15T08:00:53;0.57;;;0.57;;
55300;SDS011;58302;51.446;-2.000;2022-10-15T08:03:19;2.90;;;0.80;;
55300;SDS011;58302;51.446;-2.000;2022-10-15T08:05:45;2.35;;;0.73;;
55300;SDS011;58302;51.446;-2.000;2022-10-15T08:08:11;2.88;;;1.10;;
55300;SDS011;58302;51.446;-2.000;2022-10-15T08:10:37;3.38;;;0.80;;
55300;SDS011;58302;51.446;-2.000;2022-10-15T08:13:03;0.90;;;0.60;;
55300;SDS011;58302;51.446;-2.000;2022-10-15T08:15:28;1.70;;;0.70;;
55300;SDS011;58302;51.446;-2.000;2022-10-15T08:17:54;0.40;;;0.40;;
55300;SDS011;58302;51.446;-2.000;2022-10-15T08:20:20;1.65;;;0.90;;
55300;SDS011;58302;51.446;-2.000;2022-10-15T08:22:46;2.13;;;0.50;;
55300;SDS011;58302;51.446;-2.000;2022-10-15T08:25:12;2.38;;;1.20;;
55300;SDS011;58302;51.446;-2.000;2022-10-15T08:27:38;1.55;;;0.80;;
55300;SDS011;58302;51.446;-2.000;2022-10-15T08:30:04;2.40;;;0.73;;
55300;SDS011;58302;51.446;-2.000;2022-10-15T08:32:31;1.88;;;0.65;;
55300;SDS011;58302;51.446;-2.000;2022-10-15T08:34:56;5.28;;;0.85;;
55300;SDS011;58302;51.446;-2.000;2022-10-15T08:37:22;2.53;;;0.63;;
55300;SDS011;58302;51.446;-2.000;2022-10-15T08:39:48;0.90;;;0.43;;
55300;SDS011;58302;51.446;-2.000;2022-10-15T08:42:16;1.33;;;0.57;;
55300;SDS011;58302;51.446;-2.000;2022-10-15T08:44:50;1.17;;;0.80;;
55300;SDS011;58302;51.446;-2.000;2022-10-15T08:47:50;1.08;;;0.98;;
55300;SDS011;58302;51.446;-2.000;2022-10-15T08:52:54;2.55;;;1.20;;
55300;SDS011;58302;51.446;-2.000;2022-10-15T08:55:23;0.65;;;0.55;;
55300;SDS011;58302;51.446;-2.000;2022-10-15T08:58:02;1.38;;;0.50;;
55300;SDS011;58302;51.446;-2.000;2022-10-15T09:03:35;3.40;;;0.82;;
55300;SDS011;58302;51.446;-2.000;2022-10-15T09:06:08;1.83;;;1.17;;
55300;SDS011;58302;51.446;-2.000;2022-10-15T09:14:00;1.40;;;0.75;;
55300;SDS011;58302;51.446;-2.000;2022-10-15T09:16:31;2.20;;;0.95;;
55300;SDS011;58302;51.446;-2.000;2022-10-15T09:19:02;3.97;;;1.20;;
55300;SDS011;58302;51.446;-2.000;2022-10-15T09:21:30;0.68;;;0.52;;
55300;SDS011;58302;51.446;-2.000;2022-10-15T09:23:57;1.92;;;0.70;;
55300;SDS011;58302;51.446;-2.000;2022-10-15T09:26:28;1.95;;;1.48;;
55300;SDS011;58302;51.446;-2.000;2022-10-15T09:31:42;1.35;;;0.50;;
55300;SDS011;58302;51.446;-2.000;2022-10-15T09:34:16;0.80;;;0.43;;
55300;SDS011;58302;51.446;-2.000;2022-10-15T09:36:50;1.70;;;0.60;;
55300;SDS011;58302;51.446;-2.000;2022-10-15T09:41:58;2.85;;;1.05;;
55300;SDS011;58302;51.446;-2.000;2022-10-15T09:44:33;0.55;;;0.50;;
55300;SDS011;58302;51.446;-2.000;2022-10-15T09:47:13;3.50;;;0.70;;
55300;SDS011;58302;51.446;-2.000;2022-10-15T09:49:47;1.58;;;0.30;;
55300;SDS011;58302;51.446;-2.000;2022-10-15T09:57:34;1.00;;;0.80;;
55300;SDS011;58302;51.446;-2.000;2022-10-15T10:00:04;1.45;;;0.65;;
55300;SDS011;58302;51.446;-2.000;2022-10-15T10:02:34;4.30;;;1.25;;
55300;SDS011;58302;51.446;-2.000;2022-10-15T10:05:16;4.35;;;1.35;;
55300;SDS011;58302;51.446;-2.000;2022-10-15T10:07:45;1.27;;;0.52;;
55300;SDS011;58302;51.446;-2.000;2022-10-15T10:10:22;1.00;;;0.73;;
55300;SDS011;58302;51.446;-2.000;2022-10-15T10:12:52;2.85;;;0.82;;
55300;SDS011;58302;51.446;-2.000;2022-10-15T10:17:53;2.50;;;0.95;;
55300;SDS011;58302;51.446;-2.000;2022-10-15T10:20:24;3.17;;;1.55;;
55300;SDS011;58302;51.446;-2.000;2022-10-15T10:22:55;2.42;;;1.23;;
55300;SDS011;58302;51.446;-2.000;2022-10-15T10:27:51;2.13;;;0.95;;
55300;SDS011;58302;51.446;-2.000;2022-10-15T10:30:18;2.60;;;1.20;;
55300;SDS011;58302;51.446;-2.000;2022-10-15T10:32:44;3.08;;;1.60;;
55300;SDS011;58302;51.446;-2.000;2022-10-15T10:35:15;2.92;;;1.77;;
55300;SDS011;58302;51.446;-2.000;2022-10-15T10:37:46;3.67;;;1.50;;
55300;SDS011;58302;51.446;-2.000;2022-10-15T10:40:29;2.45;;;0.90;;
55300;SDS011;58302;51.446;-2.000;2022-10-15T10:45:59;2.45;;;1.40;;
55300;SDS011;58302;51.446;-2.000;2022-10-15T10:48:30;2.83;;;1.13;;
55300;SDS011;58302;51.446;-2.000;2022-10-15T10:51:08;2.80;;;0.93;;
55300;SDS011;58302;51.446;-2.000;2022-10-15T10:53:38;2.55;;;0.98;;
55300;SDS011;58302;51.446;-2.000;2022-10-15T10:56:10;3.63;;;1.45;;
55300;SDS011;58302;51.446;-2.000;2022-10-15T10:58:38;3.13;;;1.00;;
55300;SDS011;58302;51.446;-2.000;2022-10-15T11:01:04;3.72;;;1.25;;
55300;SDS011;58302;51.446;-2.000;2022-10-15T11:03:43;2.90;;;1.17;;
55300;SDS011;58302;51.446;-2.000;2022-10-15T11:06:24;4.28;;;1.67;;
55300;SDS011;58302;51.446;-2.000;2022-10-15T11:17:35;3.20;;;1.10;;
55300;SDS011;58302;51.446;-2.000;2022-10-15T11:20:22;3.47;;;1.60;;
55300;SDS011;58302;51.446;-2.000;2022-10-15T11:25:51;3.33;;;1.70;;
55300;SDS011;58302;51.446;-2.000;2022-10-15T11:31:51;5.03;;;1.63;;
55300;SDS011;58302;51.446;-2.000;2022-10-15T11:40:16;4.72;;;2.05;;
55300;SDS011;58302;51.446;-2.000;2022-10-15T11:43:00;4.82;;;1.85;;
55300;SDS011;58302;51.446;-2.000;2022-10-15T11:51:14;2.80;;;1.23;;
55300;SDS011;58302;51.446;-2.000;2022-10-15T11:56:41;5.05;;;1.80;;
55300;SDS011;58302;51.446;-2.000;2022-10-15T11:59:20;6.45;;;1.55;;
55300;SDS011;58302;51.446;-2.000;2022-10-15T12:01:59;7.25;;;1.73;;
55300;SDS011;58302;51.446;-2.000;2022-10-15T12:04:33;4.88;;;1.48;;
55300;SDS011;58302;51.446;-2.000;2022-10-15T12:07:05;3.35;;;1.33;;
55300;SDS011;58302;51.446;-2.000;2022-10-15T12:09:37;2.95;;;1.38;;
55300;SDS011;58302;51.446;-2.000;2022-10-15T12:12:16;5.35;;;1.25;;
55300;SDS011;58302;51.446;-2.000;2022-10-15T12:20:42;4.97;;;1.48;;
55300;SDS011;58302;51.446;-2.000;2022-10-15T12:23:42;4.30;;;1.35;;
55300;SDS011;58302;51.446;-2.000;2022-10-15T12:26:01;8.20;;;2.83;;
55300;SDS011;58302;51.446;-2.000;2022-10-15T12:28:28;8.00;;;1.90;;
55300;SDS011;58302;51.446;-2.000;2022-10-15T12:31:00;4.57;;;1.67;;
55300;SDS011;58302;51.446;-2.000;2022-10-15T12:35:58;4.38;;;1.63;;
55300;SDS011;58302;51.446;-2.000;2022-10-15T12:38:31;6.15;;;1.80;;
55300;SDS011;58302;51.446;-2.000;2022-10-15T12:41:09;3.83;;;1.33;;
55300;SDS011;58302;51.446;-2.000;2022-10-15T12:43:40;4.90;;;1.52;;
55300;SDS011;58302;51.446;-2.000;2022-10-15T12:46:13;6.90;;;2.42;;
55300;SDS011;58302;51.446;-2.000;2022-10-15T12:48:41;5.32;;;2.25;;
55300;SDS011;58302;51.446;-2.000;2022-10-15T12:53:41;7.20;;;2.35;;
55300;SDS011;58302;51.446;-2.000;2022-10-15T12:56:12;3.97;;;1.33;;
55300;SDS011;58302;51.446;-2.000;2022-10-15T12:58:51;4.22;;;1.80;;
55300;SDS011;58302;51.446;-2.000;2022-10-15T13:11:55;6.95;;;1.80;;
55300;SDS011;58302;51.446;-2.000;2022-10-15T13:19:40;6.32;;;2.03;;
55300;SDS011;58302;51.446;-2.000;2022-10-15T13:22:20;4.43;;;2.40;;
55300;SDS011;58302;51.446;-2.000;2022-10-15T13:24:50;4.47;;;2.47;;
55300;SDS011;58302;51.446;-2.000;2022-10-15T13:27:21;4.97;;;2.42;;
55300;SDS011;58302;51.446;-2.000;2022-10-15T13:29:57;8.95;;;2.15;;
55300;SDS011;58302;51.446;-2.000;2022-10-15T13:32:28;5.85;;;2.17;;
55300;SDS011;58302;51.446;-2.000;2022-10-15T13:35:01;4.85;;;1.83;;
55300;SDS011;58302;51.446;-2.000;2022-10-15T13:37:34;7.90;;;2.28;;
55300;SDS011;58302;51.446;-2.000;2022-10-15T13:40:02;3.78;;;1.65;;
55300;SDS011;58302;51.446;-2.000;2022-10-15T13:42:29;4.38;;;1.75;;
55300;SDS011;58302;51.446;-2.000;2022-10-15T13:44:57;3.95;;;1.83;;
55300;SDS011;58302;51.446;-2.000;2022-10-15T13:47:35;5.30;;;1.80;;
55300;SDS011;58302;51.446;-2.000;2022-10-15T13:50:09;5.43;;;2.50;;
55300;SDS011;58302;51.446;-2.000;2022-10-15T13:52:40;5.43;;;2.10;;
55300;SDS011;58302;51.446;-2.000;2022-10-15T13:55:21;7.32;;;2.75;;
55300;SDS011;58302;51.446;-2.000;2022-10-15T13:57:50;6.70;;;2.75;;
55300;SDS011;58302;51.446;-2.000;2022-10-15T14:00:23;12.30;;;3.28;;
55300;SDS011;58302;51.446;-2.000;2022-10-15T14:05:44;9.70;;;2.60;;
55300;SDS011;58302;51.446;-2.000;2022-10-15T14:08:16;9.57;;;3.20;;
55300;SDS011;58302;51.446;-2.000;2022-10-15T14:10:51;7.55;;;2.33;;
55300;SDS011;58302;51.446;-2.000;2022-10-15T14:13:25;6.45;;;2.10;;
55300;SDS011;58302;51.446;-2.000;2022-10-15T14:15:59;7.05;;;2.13;;
55300;SDS011;58302;51.446;-2.000;2022-10-15T14:18:38;4.93;;;1.88;;
55300;SDS011;58302;51.446;-2.000;2022-10-15T14:21:10;7.85;;;2.45;;
55300;SDS011;58302;51.446;-2.000;2022-10-15T14:23:38;9.05;;;2.95;;
55300;SDS011;58302;51.446;-2.000;2022-10-15T14:26:05;5.38;;;2.28;;
55300;SDS011;58302;51.446;-2.000;2022-10-15T14:28:33;11.40;;;2.15;;
55300;SDS011;58302;51.446;-2.000;2022-10-15T14:31:00;4.60;;;1.77;;
55300;SDS011;58302;51.446;-2.000;2022-10-15T14:33:41;10.10;;;2.70;;
55300;SDS011;58302;51.446;-2.000;2022-10-15T14:38:46;10.15;;;2.40;;
55300;SDS011;58302;51.446;-2.000;2022-10-15T14:41:27;7.43;;;2.42;;
55300;SDS011;58302;51.446;-2.000;2022-10-15T14:43:58;8.38;;;2.35;;
55300;SDS011;58302;51.446;-2.000;2022-10-15T14:46:40;7.07;;;2.47;;
55300;SDS011;58302;51.446;-2.000;2022-10-15T14:49:54;8.10;;;3.47;;
55300;SDS011;58302;51.446;-2.000;2022-10-15T14:52:03;7.22;;;2.47;;
55300;SDS011;58302;51.446;-2.000;2022-10-15T14:54:33;7.93;;;2.17;;
55300;SDS011;58302;51.446;-2.000;2022-10-15T14:57:02;6.25;;;2.30;;
55300;SDS011;58302;51.446;-2.000;2022-10-15T14:59:31;8.27;;;3.10;;
55300;SDS011;58302;51.446;-2.000;2022-10-15T15:02:00;7.72;;;2.60;;
55300;SDS011;58302;51.446;-2.000;2022-10-15T15:04:41;6.47;;;1.80;;
55300;SDS011;58302;51.446;-2.000;2022-10-15T15:07:14;7.03;;;2.08;;
55300;SDS011;58302;51.446;-2.000;2022-10-15T15:09:45;7.10;;;2.63;;
55300;SDS011;58302;51.446;-2.000;2022-10-15T15:12:17;7.47;;;3.20;;
55300;SDS011;58302;51.446;-2.000;2022-10-15T15:14:45;9.52;;;3.85;;
55300;SDS011;58302;51.446;-2.000;2022-10-15T15:17:16;5.90;;;2.60;;
55300;SDS011;58302;51.446;-2.000;2022-10-15T15:19:48;6.40;;;3.28;;
55300;SDS011;58302;51.446;-2.000;2022-10-15T15:22:17;9.80;;;2.88;;
55300;SDS011;58302;51.446;-2.000;2022-10-15T15:24:48;7.20;;;2.55;;
55300;SDS011;58302;51.446;-2.000;2022-10-15T15:27:22;8.00;;;3.40;;
55300;SDS011;58302;51.446;-2.000;2022-10-15T15:29:55;11.10;;;3.92;;
55300;SDS011;58302;51.446;-2.000;2022-10-15T15:32:22;6.05;;;2.63;;
55300;SDS011;58302;51.446;-2.000;2022-10-15T15:34:50;5.85;;;2.90;;
55300;SDS011;58302;51.446;-2.000;2022-10-15T15:37:18;9.93;;;2.90;;
55300;SDS011;58302;51.446;-2.000;2022-10-15T15:39:47;8.73;;;2.30;;
55300;SDS011;58302;51.446;-2.000;2022-10-15T15:42:14;10.25;;;3.47;;
55300;SDS011;58302;51.446;-2.000;2022-10-15T15:44:48;15.13;;;5.10;;
55300;SDS011;58302;51.446;-2.000;2022-10-15T15:47:14;14.43;;;8.05;;
55300;SDS011;58302;51.446;-2.000;2022-10-15T15:49:41;15.98;;;8.20;;
55300;SDS011;58302;51.446;-2.000;2022-10-15T15:52:08;12.55;;;4.20;;
55300;SDS011;58302;51.446;-2.000;2022-10-15T15:54:43;9.05;;;3.40;;
55300;SDS011;58302;51.446;-2.000;2022-10-15T15:57:11;9.32;;;4.53;;
55300;SDS011;58302;51.446;-2.000;2022-10-15T15:59:39;12.45;;;4.53;;
55300;SDS011;58302;51.446;-2.000;2022-10-15T16:02:06;12.10;;;3.90;;
55300;SDS011;58302;51.446;-2.000;2022-10-15T16:04:32;6.50;;;3.13;;
55300;SDS011;58302;51.446;-2.000;2022-10-15T16:06:58;9.63;;;4.45;;
55300;SDS011;58302;51.446;-2.000;2022-10-15T16:09:25;12.05;;;3.95;;
55300;SDS011;58302;51.446;-2.000;2022-10-15T16:11:51;12.13;;;5.60;;
55300;SDS011;58302;51.446;-2.000;2022-10-15T16:14:19;17.83;;;7.28;;
55300;SDS011;58302;51.446;-2.000;2022-10-15T16:16:45;13.07;;;6.30;;
55300;SDS011;58302;51.446;-2.000;2022-10-15T16:19:11;15.85;;;6.13;;
55300;SDS011;58302;51.446;-2.000;2022-10-15T16:21:37;13.40;;;6.25;;
55300;SDS011;58302;51.446;-2.000;2022-10-15T16:24:03;10.90;;;4.32;;
55300;SDS011;58302;51.446;-2.000;2022-10-15T16:26:29;13.07;;;4.88;;
55300;SDS011;58302;51.446;-2.000;2022-10-15T16:28:55;11.63;;;3.63;;
55300;SDS011;58302;51.446;-2.000;2022-10-15T16:31:22;9.35;;;4.28;;
55300;SDS011;58302;51.446;-2.000;2022-10-15T16:33:52;10.38;;;4.28;;
55300;SDS011;58302;51.446;-2.000;2022-10-15T16:36:19;12.70;;;4.10;;
55300;SDS011;58302;51.446;-2.000;2022-10-15T16:38:46;18.70;;;6.70;;
55300;SDS011;58302;51.446;-2.000;2022-10-15T16:41:17;10.73;;;5.70;;